Time;durP1;ratioP1;P1;durP2;ratioP2;P2;SDS_P1;SDS_P2;PMS_P1;PMS_P2;Temp;Humidity;BMP_temperature;BMP_pressure;BME280_temperature;BME280_humidity;BME280_pressure;Samples;Min_cycle;Max_cycle;Signal;HPM_P1;HPM_P2
2022/05/30 00:00:55;;;;;;;13.40;7.13;;;;;;;17.27;77.73;94576.28;4940333;29;20031;-82
2022/05/30 00:03:20;;;;;;;11.90;7.07;;;;;;;16.93;77.82;94539.09;4940236;29;20039;-82
2022/05/30 00:05:49;;;;;;;9.27;6.35;;;;;;;17.29;78.43;94575.94;4904472;29;20140;-81
2022/05/30 00:08:16;;;;;;;9.52;7.03;;;;;;;17.19;77.18;94560.28;4939624;28;20881;-82
2022/05/30 00:10:43;;;;;;;8.90;6.10;;;;;;;16.70;77.26;94503.06;4922411;29;20477;-82
2022/05/30 00:13:08;;;;;;;12.70;6.60;;;;;;;17.06;77.99;94585.47;4922100;29;20031;-82
2022/05/30 00:15:34;;;;;;;8.80;6.10;;;;;;;16.85;78.24;94586.25;4939002;29;20030;-82
2022/05/30 00:17:59;;;;;;;11.35;6.53;;;;;;;15.73;78.28;94426.41;4932147;29;20459;-82
2022/05/30 00:20:25;;;;;;;9.18;6.53;;;;;;;16.79;79.18;94586.75;4929084;28;20027;-82
2022/05/30 00:22:51;;;;;;;12.57;6.40;;;;;;;16.82;78.15;94594.16;4911974;29;20028;-82
2022/05/30 00:25:18;;;;;;;12.07;6.53;;;;;;;16.24;77.84;94520.03;4931411;29;20039;-83
2022/05/30 00:27:43;;;;;;;9.15;6.13;;;;;;;16.78;77.82;94585.22;4921367;29;20123;-82
2022/05/30 00:30:10;;;;;;;13.98;6.68;;;;;;;16.56;77.58;94536.19;4939128;29;20305;-82
2022/05/30 00:32:36;;;;;;;10.43;6.43;;;;;;;16.42;77.53;94516.91;4939466;29;20421;-82
2022/05/30 00:35:02;;;;;;;11.65;6.93;;;;;;;16.73;77.93;94556.72;4921285;29;20506;-82
2022/05/30 00:37:27;;;;;;;16.92;6.22;;;;;;;16.98;78.48;94581.75;4921592;29;20027;-82
2022/05/30 00:39:53;;;;;;;13.25;7.28;;;;;;;17.02;78.30;94576.50;4938645;29;20855;-82
2022/05/30 00:42:22;;;;;;;12.73;6.30;;;;;;;16.70;78.25;94529.81;4921488;29;20453;-82
2022/05/30 00:44:48;;;;;;;14.30;6.63;;;;;;;16.65;78.31;94533.47;4922008;29;20035;-84
2022/05/30 00:47:15;;;;;;;13.40;7.05;;;;;;;17.03;78.20;94589.56;4939172;29;20114;-82
2022/05/30 00:49:43;;;;;;;9.52;6.63;;;;;;;16.67;78.04;94575.97;4938857;29;20549;-82
2022/05/30 00:52:14;;;;;;;9.35;6.35;;;;;;;16.41;77.92;94534.06;4942845;28;20106;-82
2022/05/30 00:54:53;;;;;;;13.25;6.85;;;;;;;16.05;77.61;94477.66;4916369;29;20062;-82
2022/05/30 00:57:20;;;;;;;13.48;6.95;;;;;;;16.83;77.35;94593.03;4917465;29;20125;-82
2022/05/30 00:59:56;;;;;;;11.07;6.13;;;;;;;16.81;77.30;94592.56;4924963;29;20161;-82
2022/05/30 01:02:23;;;;;;;16.98;7.45;;;;;;;16.86;77.44;94592.41;4927162;29;20043;-82
2022/05/30 01:07:36;;;;;;;13.65;6.30;;;;;;;16.34;77.83;94528.47;4942860;29;20049;-82
2022/05/30 01:10:06;;;;;;;12.45;7.22;;;;;;;16.21;77.95;94521.47;4942537;29;20039;-82
2022/05/30 01:12:49;;;;;;;11.77;6.78;;;;;;;16.41;77.84;94533.28;4924639;29;20031;-82
2022/05/30 01:15:17;;;;;;;15.80;6.55;;;;;;;16.47;77.46;94548.06;4924307;29;20498;-81
2022/05/30 01:17:57;;;;;;;13.93;7.18;;;;;;;16.22;78.67;94520.38;4942118;29;20150;-81
2022/05/30 01:20:36;;;;;;;18.53;7.77;;;;;;;16.60;77.28;94597.91;4924437;29;20441;-82
2022/05/30 01:23:32;;;;;;;13.60;7.32;;;;;;;16.71;77.27;94595.63;4942028;29;20705;-81
2022/05/30 01:26:28;;;;;;;11.55;6.97;;;;;;;16.77;76.93;94608.53;4924850;29;20071;-82
2022/05/30 01:29:07;;;;;;;12.63;6.28;;;;;;;16.21;76.72;94532.16;4923846;29;20046;-81
2022/05/30 01:31:32;;;;;;;10.07;6.40;;;;;;;16.52;76.92;94585.34;4911953;29;20139;-82
2022/05/30 01:33:58;;;;;;;10.07;5.78;;;;;;;16.31;76.68;94561.25;4905245;29;20518;-82
2022/05/30 01:36:25;;;;;;;12.02;7.13;;;;;;;16.33;76.27;94579.63;4936480;29;20038;-81
2022/05/30 01:38:51;;;;;;;14.95;5.82;;;;;;;16.44;76.65;94605.69;4941811;29;20049;-81
2022/05/30 01:41:17;;;;;;;13.25;5.90;;;;;;;16.40;76.53;94609.34;4925517;29;20065;-82
2022/05/30 01:43:42;;;;;;;10.55;5.25;;;;;;;16.18;76.98;94605.81;4939799;29;20482;-81
2022/05/30 01:46:11;;;;;;;10.70;5.75;;;;;;;15.95;76.85;94567.06;4941279;29;20044;-82
2022/05/30 01:48:36;;;;;;;11.40;5.43;;;;;;;16.27;76.52;94613.03;4941654;29;20494;-82
2022/05/30 01:51:02;;;;;;;12.63;5.75;;;;;;;15.91;76.06;94546.66;4923798;29;20514;-81
2022/05/30 01:53:28;;;;;;;12.02;5.80;;;;;;;16.05;76.58;94611.41;4919230;29;20038;-82
2022/05/30 01:55:54;;;;;;;7.70;4.72;;;;;;;15.76;77.59;94556.78;4929406;29;20197;-81
2022/05/30 01:58:20;;;;;;;8.75;4.95;;;;;;;15.81;77.34;94572.63;4923716;29;20501;-81
2022/05/30 02:00:45;;;;;;;12.52;5.28;;;;;;;15.70;77.08;94527.88;4924291;29;20043;-82
2022/05/30 02:03:10;;;;;;;12.25;4.45;;;;;;;15.71;76.65;94537.47;4923018;29;20039;-82
2022/05/30 02:05:36;;;;;;;16.92;5.50;;;;;;;15.80;77.12;94541.66;4941028;29;20482;-82
2022/05/30 02:08:02;;;;;;;11.80;5.40;;;;;;;16.26;76.35;94603.44;4924125;29;20039;-82
2022/05/30 02:10:31;;;;;;;14.98;5.20;;;;;;;16.34;76.57;94618.66;4942092;29;20066;-81
2022/05/30 02:12:56;;;;;;;9.00;4.63;;;;;;;15.78;76.31;94543.09;4907316;29;20043;-82
2022/05/30 02:15:22;;;;;;;10.10;5.30;;;;;;;16.14;77.11;94598.78;4938864;29;20398;-82
2022/05/30 02:17:47;;;;;;;10.20;5.25;;;;;;;15.76;76.12;94547.97;4941185;28;20074;-82
2022/05/30 02:20:13;;;;;;;16.73;5.28;;;;;;;15.96;75.98;94591.91;4941420;29;20603;-81
2022/05/30 02:22:38;;;;;;;7.57;5.22;;;;;;;15.58;75.97;94527.75;4922885;29;20035;-82
2022/05/30 02:25:05;;;;;;;9.68;5.15;;;;;;;16.27;76.90;94640.56;4941048;29;20560;-82
2022/05/30 02:27:31;;;;;;;13.98;5.60;;;;;;;15.93;77.45;94593.38;4940826;29;20074;-81
2022/05/30 02:29:57;;;;;;;9.85;5.03;;;;;;;15.61;76.16;94557.31;4924151;29;20039;-82
2022/05/30 02:32:22;;;;;;;11.30;5.90;;;;;;;15.62;75.88;94552.75;4923654;29;20042;-82
2022/05/30 02:37:32;;;;;;;14.65;5.82;;;;;;;16.11;77.00;94644.88;4941188;29;20540;-82
2022/05/30 02:39:58;;;;;;;17.27;6.60;;;;;;;15.80;77.80;94603.13;4941118;29;20047;-81
2022/05/30 02:42:23;;;;;;;10.80;7.38;;;;;;;15.98;74.91;94630.63;4923098;29;20046;-82
2022/05/30 02:44:49;;;;;;;13.80;7.15;;;;;;;15.89;75.33;94602.31;4941136;29;20043;-82
2022/05/30 02:47:16;;;;;;;13.10;7.70;;;;;;;15.66;75.93;94567.81;4923153;29;20886;-82
2022/05/30 02:49:42;;;;;;;19.05;7.28;;;;;;;16.04;74.96;94626.66;4940450;29;20117;-82
2022/05/30 02:52:07;;;;;;;12.82;7.05;;;;;;;15.77;75.00;94589.66;4941038;29;20050;-82
2022/05/30 02:54:33;;;;;;;14.38;7.43;;;;;;;15.69;74.66;94604.59;4940229;29;20490;-82
2022/05/30 02:56:59;;;;;;;17.55;8.23;;;;;;;16.06;74.30;94661.91;4940634;29;20031;-81
2022/05/30 02:59:26;;;;;;;15.70;8.18;;;;;;;16.05;74.25;94662.22;4918737;29;20059;-82
2022/05/30 03:01:52;;;;;;;17.77;7.93;;;;;;;16.03;75.42;94669.75;4909202;29;20034;-81
2022/05/30 03:04:19;;;;;;;18.42;7.50;;;;;;;15.35;74.51;94596.63;4922407;29;20866;-82
2022/05/30 03:06:45;;;;;;;15.75;7.53;;;;;;;15.51;75.57;94607.59;4923251;29;20556;-82
2022/05/30 03:09:13;;;;;;;15.15;7.00;;;;;;;15.62;74.11;94651.63;4940536;29;20067;-81
2022/05/30 03:11:38;;;;;;;21.65;8.13;;;;;;;15.29;75.21;94612.03;4923220;29;20528;-82
2022/05/30 03:14:04;;;;;;;10.95;7.13;;;;;;;15.39;74.96;94662.47;4940072;28;20035;-81
2022/05/30 03:16:30;;;;;;;17.20;7.32;;;;;;;15.38;75.68;94652.09;4940769;29;20498;-82
2022/05/30 03:18:56;;;;;;;16.90;7.82;;;;;;;15.75;75.31;94704.13;4940228;29;20708;-82
2022/05/30 03:21:22;;;;;;;20.73;7.82;;;;;;;14.94;74.75;94613.16;4907383;29;20043;-82
2022/05/30 03:23:48;;;;;;;18.48;8.50;;;;;;;15.36;74.88;94676.47;4937133;29;20110;-82
2022/05/30 03:26:15;;;;;;;20.90;7.72;;;;;;;15.38;75.36;94716.22;4923134;29;20755;-82
2022/05/30 03:28:41;;;;;;;14.15;8.40;;;;;;;15.35;75.24;94722.97;4940311;29;20035;-81
2022/05/30 03:31:07;;;;;;;27.58;8.90;;;;;;;15.34;76.87;94723.28;4940784;29;20541;-82
2022/05/30 03:33:34;;;;;;;26.30;9.23;;;;;;;15.33;75.91;94727.84;4940123;29;20031;-81
2022/05/30 03:35:59;;;;;;;18.45;8.55;;;;;;;15.30;75.36;94720.47;4922221;29;20830;-82
2022/05/30 03:38:25;;;;;;;20.52;9.90;;;;;;;14.52;76.41;94620.81;4922536;29;20023;-82
2022/05/30 03:40:50;;;;;;;23.35;8.65;;;;;;;14.85;75.36;94673.78;4939852;28;20043;-82
2022/05/30 03:43:16;;;;;;;13.95;8.43;;;;;;;14.95;74.30;94741.00;4921596;29;20033;-82
2022/05/30 03:45:43;;;;;;;17.42;8.77;;;;;;;14.58;75.56;94682.81;4940264;29;20881;-82
2022/05/30 03:48:11;;;;;;;20.80;8.52;;;;;;;14.20;75.98;94703.81;4911263;29;20036;-82
2022/05/30 03:50:39;;;;;;;18.60;9.48;;;;;;;14.40;77.35;94761.22;4932367;28;20038;-82
2022/05/30 03:53:05;;;;;;;22.83;9.38;;;;;;;14.03;77.59;94720.53;4939413;29;20035;-82
2022/05/30 03:55:34;;;;;;;26.25;10.48;;;;;;;14.29;78.02;94763.34;4939434;29;20171;-82
2022/05/30 03:58:02;;;;;;;20.73;10.18;;;;;;;13.66;78.67;94689.72;4939644;29;20035;-81
2022/05/30 04:00:27;;;;;;;19.88;11.07;;;;;;;13.75;79.38;94729.75;4921228;29;20035;-82
2022/05/30 04:02:53;;;;;;;21.63;11.02;;;;;;;13.39;79.40;94684.53;4938022;29;20086;-82
2022/05/30 04:05:19;;;;;;;24.40;12.98;;;;;;;13.71;80.72;94768.78;4939329;29;20489;-81
2022/05/30 04:07:45;;;;;;;18.35;12.75;;;;;;;13.56;80.54;94761.94;4942068;29;20409;-81
2022/05/30 04:10:11;;;;;;;20.70;13.35;;;;;;;13.80;81.15;94782.97;4933714;29;20035;-81
2022/05/30 04:12:36;;;;;;;25.05;12.43;;;;;;;13.72;80.65;94770.34;4909112;28;20083;-81
2022/05/30 04:15:05;;;;;;;20.23;11.90;;;;;;;13.56;80.41;94721.97;4939490;29;20450;-82
2022/05/30 04:17:34;;;;;;;25.83;14.10;;;;;;;13.96;80.63;94780.72;4931999;29;20059;-81
2022/05/30 04:20:00;;;;;;;28.08;13.20;;;;;;;13.91;80.64;94765.63;4921470;29;20685;-81
2022/05/30 04:22:25;;;;;;;26.60;15.38;;;;;;;13.94;80.50;94772.22;4932609;29;20046;-81
2022/05/30 04:24:52;;;;;;;29.67;14.20;;;;;;;14.20;79.97;94797.16;4921120;29;20090;-82
2022/05/30 04:27:18;;;;;;;25.42;13.60;;;;;;;14.12;79.20;94803.22;4927255;29;20462;-82
2022/05/30 04:29:43;;;;;;;21.00;14.05;;;;;;;14.06;79.34;94796.44;4907622;29;20129;-82
2022/05/30 04:32:09;;;;;;;27.08;14.88;;;;;;;14.22;79.38;94785.09;4929687;29;20081;-81
2022/05/30 04:34:36;;;;;;;21.60;14.15;;;;;;;13.62;79.41;94719.97;4931137;29;20248;-82
2022/05/30 04:37:03;;;;;;;22.08;14.48;;;;;;;14.21;78.66;94791.53;4914809;29;20039;-82
2022/05/30 04:39:28;;;;;;;23.77;14.23;;;;;;;14.54;79.20;94788.59;4915520;29;21375;-81
2022/05/30 04:41:54;;;;;;;30.10;14.70;;;;;;;14.63;78.69;94773.41;4927443;29;20035;-82
2022/05/30 04:44:20;;;;;;;24.27;15.00;;;;;;;14.78;77.76;94793.56;4908858;29;20051;-81
2022/05/30 04:46:56;;;;;;;30.38;16.52;;;;;;;14.20;77.81;94690.47;4906758;29;20179;-81
2022/05/30 04:49:23;;;;;;;36.10;15.60;;;;;;;15.12;77.37;94799.00;4919539;29;20035;-81
2022/05/30 04:51:49;;;;;;;29.20;16.25;;;;;;;14.74;76.94;94736.53;4901010;29;20042;-82
2022/05/30 04:54:15;;;;;;;22.35;14.95;;;;;;;14.94;76.72;94757.34;4904531;29;20035;-81
2022/05/30 04:56:41;;;;;;;22.35;14.65;;;;;;;15.26;76.97;94815.69;4904549;29;20677;-81
2022/05/30 04:59:07;;;;;;;39.28;16.85;;;;;;;14.78;76.22;94706.25;4925782;29;20456;-81
2022/05/30 05:01:33;;;;;;;31.45;17.17;;;;;;;14.89;75.74;94733.44;4916325;29;20638;-81
2022/05/30 05:03:59;;;;;;;33.80;17.17;;;;;;;15.17;75.76;94752.69;4918550;29;20040;-81
2022/05/30 05:06:25;;;;;;;32.67;15.45;;;;;;;15.68;76.19;94822.22;4922557;29;20031;-81
2022/05/30 05:08:50;;;;;;;32.35;15.98;;;;;;;15.69;74.76;94815.78;4925656;29;20035;-80
2022/05/30 05:11:18;;;;;;;20.92;14.25;;;;;;;15.90;74.96;94815.94;4924560;29;20158;-81
2022/05/30 05:13:45;;;;;;;26.98;14.98;;;;;;;15.34;73.93;94740.09;4907332;29;20081;-82
2022/05/30 05:16:11;;;;;;;31.85;15.00;;;;;;;15.50;73.39;94777.06;4908360;29;20035;-82
2022/05/30 05:18:37;;;;;;;26.70;15.57;;;;;;;14.83;72.77;94638.59;4907984;29;20434;-82
2022/05/30 05:21:03;;;;;;;31.15;14.32;;;;;;;16.12;73.61;94818.44;4908904;29;20036;-81
2022/05/30 05:23:29;;;;;;;37.45;17.95;;;;;;;16.23;73.25;94832.28;4922700;29;20546;-81
2022/05/30 05:25:55;;;;;;;32.63;17.85;;;;;;;16.32;73.99;94832.28;4929515;29;20047;-82
2022/05/30 05:28:20;;;;;;;30.30;16.55;;;;;;;16.05;71.48;94807.44;4900311;29;20562;-83
2022/05/30 05:30:48;;;;;;;23.48;14.82;;;;;;;15.86;70.92;94745.50;4921461;29;20039;-82
2022/05/30 05:33:17;;;;;;;22.08;16.20;;;;;;;16.40;71.96;94837.59;4907660;29;20401;-82
2022/05/30 05:35:45;;;;;;;31.75;17.67;;;;;;;16.26;72.76;94788.03;4925202;29;20146;-81
2022/05/30 05:38:14;;;;;;;31.92;19.42;;;;;;;15.98;72.83;94747.50;4920577;28;20489;-82
2022/05/30 05:40:41;;;;;;;32.60;17.38;;;;;;;15.83;72.26;94711.34;4922273;29;20042;-82
2022/05/30 05:43:07;;;;;;;27.58;16.77;;;;;;;16.00;72.48;94743.41;4900720;29;20039;-82
2022/05/30 05:45:37;;;;;;;34.33;18.60;;;;;;;16.59;73.07;94838.03;4920820;29;20629;-81
2022/05/30 05:48:03;;;;;;;29.47;17.43;;;;;;;15.96;73.40;94758.50;4895440;29;20267;-81
2022/05/30 05:50:29;;;;;;;30.48;17.95;;;;;;;16.72;73.04;94835.50;4902195;29;20600;-81
2022/05/30 05:52:54;;;;;;;30.20;17.13;;;;;;;16.02;73.86;94749.22;4917418;29;20585;-82
2022/05/30 05:55:21;;;;;;;30.75;17.65;;;;;;;15.61;73.60;94668.78;4902014;29;20031;-82
2022/05/30 05:57:47;;;;;;;27.33;17.73;;;;;;;15.84;73.27;94680.84;4910160;29;20182;-82
2022/05/30 06:00:13;;;;;;;31.83;18.60;;;;;;;16.40;73.19;94761.91;4901304;29;20047;-81
2022/05/30 06:02:40;;;;;;;37.05;20.63;;;;;;;16.76;72.93;94797.06;4905555;29;20418;-82
2022/05/30 06:05:06;;;;;;;30.00;18.77;;;;;;;16.25;72.07;94731.06;4900006;29;20039;-82
2022/05/30 06:07:36;;;;;;;31.85;18.65;;;;;;;16.65;72.45;94781.66;4917607;29;20376;-82
2022/05/30 06:10:05;;;;;;;48.90;19.35;;;;;;;17.17;72.12;94841.94;4901507;29;20044;-82
2022/05/30 06:12:34;;;;;;;33.78;18.70;;;;;;;16.95;72.22;94812.72;4910203;29;20894;-81
2022/05/30 06:14:59;;;;;;;31.58;16.83;;;;;;;16.82;71.27;94817.22;4898972;29;20031;-82
2022/05/30 06:17:28;;;;;;;31.42;18.27;;;;;;;16.98;72.66;94854.97;4918670;29;20043;-82
2022/05/30 06:19:54;;;;;;;36.67;17.33;;;;;;;16.73;73.19;94839.75;4915020;29;20031;-82
2022/05/30 06:22:19;;;;;;;30.80;17.58;;;;;;;16.22;72.88;94769.19;4898553;29;20531;-82
2022/05/30 06:24:45;;;;;;;26.70;17.55;;;;;;;15.70;72.68;94661.53;4903515;29;20158;-82
2022/05/30 06:27:15;;;;;;;34.10;18.33;;;;;;;16.86;73.42;94876.28;4901301;29;20513;-83
2022/05/30 06:29:40;;;;;;;30.38;17.90;;;;;;;16.43;74.09;94839.66;4912849;29;20074;-82
2022/05/30 06:32:06;;;;;;;30.60;19.08;;;;;;;16.31;73.61;94798.59;4892339;29;20039;-82
2022/05/30 06:34:32;;;;;;;32.70;18.70;;;;;;;16.88;73.71;94876.72;4915142;29;20510;-82
2022/05/30 06:36:57;;;;;;;32.40;16.48;;;;;;;16.29;73.29;94814.19;4915920;29;20035;-81
2022/05/30 06:39:23;;;;;;;31.90;17.90;;;;;;;16.02;72.95;94770.63;4894421;29;20035;-82
2022/05/30 06:41:48;;;;;;;38.10;18.67;;;;;;;16.74;72.43;94833.28;4889883;29;20043;-82
2022/05/30 06:44:14;;;;;;;30.65;17.65;;;;;;;16.48;72.07;94804.66;4900098;29;20063;-82
2022/05/30 06:46:39;;;;;;;27.00;16.27;;;;;;;16.61;71.78;94796.81;4911134;29;20680;-82
2022/05/30 06:49:06;;;;;;;34.58;16.73;;;;;;;16.73;70.96;94826.38;4915115;28;20347;-82
2022/05/30 06:51:34;;;;;;;28.17;15.60;;;;;;;17.14;71.64;94877.44;4894004;29;20158;-82
2022/05/30 06:54:01;;;;;;;33.80;17.58;;;;;;;16.73;71.58;94829.03;4917458;29;20318;-81
2022/05/30 06:56:29;;;;;;;30.50;16.88;;;;;;;17.05;71.40;94878.56;4896060;29;20494;-81
2022/05/30 06:58:55;;;;;;;32.70;16.88;;;;;;;17.12;71.53;94889.56;4899969;29;20170;-81
2022/05/30 07:01:26;;;;;;;32.33;17.27;;;;;;;17.12;71.71;94865.47;4894619;29;20960;-80
2022/05/30 07:03:52;;;;;;;24.83;15.57;;;;;;;17.14;71.14;94872.06;4912024;29;20502;-80
2022/05/30 07:06:21;;;;;;;33.63;14.88;;;;;;;16.80;70.93;94808.69;4905507;29;20158;-81
2022/05/30 07:08:47;;;;;;;29.35;15.20;;;;;;;16.76;70.16;94815.81;4903846;29;20063;-80
2022/05/30 07:11:14;;;;;;;25.75;14.38;;;;;;;17.09;70.02;94863.44;4925738;29;20032;-81
2022/05/30 07:13:39;;;;;;;21.52;13.50;;;;;;;16.90;69.62;94800.31;4917382;29;20062;-81
2022/05/30 07:16:05;;;;;;;21.98;13.68;;;;;;;17.42;69.35;94885.03;4918311;29;20146;-81
2022/05/30 07:18:31;;;;;;;25.45;13.85;;;;;;;17.19;69.22;94838.94;4917023;29;20031;-82
2022/05/30 07:21:03;;;;;;;26.58;13.70;;;;;;;17.18;68.72;94843.50;4903138;29;20036;-81
2022/05/30 07:23:30;;;;;;;20.48;14.30;;;;;;;17.67;68.82;94879.56;4903123;29;20118;-82
2022/05/30 07:26:01;;;;;;;31.00;13.90;;;;;;;17.25;68.71;94802.81;4902268;29;20568;-81
2022/05/30 07:28:29;;;;;;;26.88;14.35;;;;;;;17.77;67.42;94881.09;4900716;29;20444;-82
2022/05/30 07:31:04;;;;;;;17.20;13.48;;;;;;;17.84;67.28;94862.56;4912297;29;20049;-82
2022/05/30 07:33:29;;;;;;;24.52;13.88;;;;;;;18.03;66.67;94887.03;4903148;29;20118;-84
2022/05/30 07:35:56;;;;;;;28.02;14.25;;;;;;;17.91;66.57;94876.25;4892529;29;20032;-82
2022/05/30 07:38:21;;;;;;;29.33;14.00;;;;;;;17.56;67.92;94854.19;4904481;29;20145;-82
2022/05/30 07:40:47;;;;;;;25.35;14.18;;;;;;;17.91;67.63;94886.19;4918821;29;20028;-83
2022/05/30 07:43:14;;;;;;;24.85;14.10;;;;;;;17.25;67.63;94781.38;4901153;29;20043;-82
2022/05/30 07:45:39;;;;;;;27.13;14.10;;;;;;;17.33;66.86;94764.44;4913206;29;20035;-82
2022/05/30 07:48:05;;;;;;;24.63;15.80;;;;;;;17.78;67.56;94812.91;4917910;29;20042;-83
2022/05/30 07:50:31;;;;;;;26.77;15.68;;;;;;;17.71;67.37;94802.69;4902232;29;20038;-82
2022/05/30 07:52:59;;;;;;;24.88;13.65;;;;;;;17.70;65.83;94766.25;4907590;29;20040;-82
2022/05/30 07:55:24;;;;;;;25.83;13.48;;;;;;;18.31;65.46;94863.13;4917272;29;20072;-82
2022/05/30 07:57:50;;;;;;;21.38;13.90;;;;;;;17.78;65.47;94769.19;4923912;29;20741;-82
2022/05/30 08:00:17;;;;;;;23.05;12.20;;;;;;;18.38;65.58;94901.00;4918411;29;20062;-82
2022/05/30 08:02:43;;;;;;;28.05;13.65;;;;;;;17.77;65.50;94781.84;4926415;29;20043;-82
2022/05/30 08:05:12;;;;;;;24.67;13.90;;;;;;;17.93;65.18;94795.41;4926558;29;20032;-82
2022/05/30 08:07:39;;;;;;;27.27;14.43;;;;;;;18.44;65.66;94880.09;4912149;29;20485;-82
2022/05/30 08:10:08;;;;;;;33.13;14.75;;;;;;;18.46;65.45;94843.72;4924580;29;20192;-82
2022/05/30 08:12:33;;;;;;;22.55;12.30;;;;;;;18.58;65.23;94847.59;4927135;29;20644;-82
2022/05/30 08:14:59;;;;;;;23.52;14.60;;;;;;;18.36;64.98;94833.41;4916778;29;20305;-82
2022/05/30 08:17:25;;;;;;;25.75;13.20;;;;;;;18.89;64.23;94896.25;4925093;29;20547;-83
2022/05/30 08:19:51;;;;;;;21.42;12.93;;;;;;;18.74;64.48;94864.66;4919706;29;20047;-82
2022/05/30 08:22:16;;;;;;;32.10;13.00;;;;;;;19.09;63.92;94886.53;4921284;29;20051;-83
2022/05/30 08:24:47;;;;;;;26.88;13.45;;;;;;;18.31;63.83;94774.53;4923808;29;20067;-82
2022/05/30 08:27:14;;;;;;;20.70;13.10;;;;;;;19.04;63.67;94892.16;4914087;29;20470;-82
2022/05/30 08:29:42;;;;;;;26.95;12.43;;;;;;;18.68;63.13;94828.38;4922714;29;20043;-82
2022/05/30 08:32:08;;;;;;;18.83;11.45;;;;;;;18.95;62.89;94864.56;4914259;29;20043;-83
2022/05/30 08:34:39;;;;;;;26.63;11.77;;;;;;;19.34;62.90;94882.00;4914331;29;20042;-83
2022/05/30 08:37:05;;;;;;;;;;;;;;;19.22;61.90;94880.84;4929403;29;20039;-82
2022/05/30 08:42:22;;;;;;;21.80;12.18;;;;;;;18.61;61.62;94787.88;4925399;29;20151;-83
2022/05/30 08:44:48;;;;;;;23.00;13.13;;;;;;;18.48;62.63;94779.72;4906930;29;20110;-83
2022/05/30 08:47:51;;;;;;;24.80;12.07;;;;;;;19.36;61.45;94893.19;4929143;29;20036;-83
2022/05/30 08:50:25;;;;;;;18.17;10.23;;;;;;;19.42;60.92;94881.88;4929651;29;20510;-83
2022/05/30 08:53:07;;;;;;;24.85;10.30;;;;;;;19.44;61.08;94876.16;4917421;29;20048;-83
2022/05/30 08:55:50;;;;;;;17.50;9.07;;;;;;;19.00;60.49;94832.91;4933993;29;20031;-84
2022/05/30 08:58:50;;;;;;;20.98;10.00;;;;;;;19.52;60.52;94884.16;4913585;29;20043;-82
2022/05/30 09:01:39;;;;;;;16.15;8.60;;;;;;;19.03;58.85;94816.09;4926628;29;20035;-82
2022/05/30 09:04:16;;;;;;;16.40;8.80;;;;;;;19.23;58.80;94871.66;4926979;29;20078;-82
2022/05/30 09:06:53;;;;;;;19.95;9.30;;;;;;;19.34;59.84;94863.94;4925407;29;20031;-83
2022/05/30 09:09:58;;;;;;;17.40;8.10;;;;;;;19.57;59.02;94908.13;4928160;29;20558;-83
2022/05/30 09:13:00;;;;;;;16.30;8.10;;;;;;;19.71;58.45;94894.34;4914386;29;20043;-82
2022/05/30 09:15:34;;;;;;;17.20;9.38;;;;;;;19.51;58.58;94853.00;4899712;29;20051;-82
2022/05/30 09:18:00;;;;;;;15.55;8.57;;;;;;;19.65;58.34;94879.56;4915976;29;20290;-83
2022/05/30 09:20:27;;;;;;;18.90;8.93;;;;;;;19.22;58.54;94832.44;4935796;29;20093;-82
2022/05/30 09:22:53;;;;;;;13.55;7.47;;;;;;;19.60;57.59;94893.25;4927757;29;20122;-83
2022/05/30 09:28:08;;;;;;;13.70;7.38;;;;;;;19.67;58.30;94882.69;4930367;29;20049;-83
2022/05/30 09:31:02;;;;;;;19.10;10.85;;;;;;;19.47;57.88;94862.06;4917171;29;20043;-83
2022/05/30 09:33:34;;;;;;;18.55;8.85;;;;;;;19.88;58.36;94907.56;4913552;29;20102;-82
2022/05/30 09:36:22;;;;;;;23.58;8.82;;;;;;;19.71;57.97;94869.34;4922535;29;20046;-83
2022/05/30 09:39:03;;;;;;;14.65;8.43;;;;;;;19.08;57.65;94780.94;4908973;29;20098;-82
2022/05/30 09:41:46;;;;;;;15.00;8.57;;;;;;;19.48;57.20;94788.34;4917003;29;20178;-82
2022/05/30 09:44:18;;;;;;;15.48;8.27;;;;;;;20.83;56.73;94899.91;4918366;29;20043;-83
2022/05/30 09:46:58;;;;;;;14.35;7.90;;;;;;;21.60;54.27;94903.00;4914956;29;20075;-84
2022/05/30 09:49:27;;;;;;;9.52;6.45;;;;;;;22.28;51.22;94906.88;4920957;29;20039;-84
2022/05/30 09:51:56;;;;;;;14.80;6.68;;;;;;;22.90;49.80;94907.78;4919096;29;20133;-83
2022/05/30 09:54:24;;;;;;;12.73;7.30;;;;;;;23.32;49.42;94906.97;4910856;29;20761;-82
2022/05/30 09:56:57;;;;;;;17.17;7.38;;;;;;;24.10;45.46;94917.16;4913948;29;20106;-84
2022/05/30 09:59:29;;;;;;;16.35;6.18;;;;;;;24.69;44.59;94891.22;4921319;29;20116;-84
2022/05/30 10:01:54;;;;;;;15.73;6.78;;;;;;;24.66;44.21;94867.53;4915001;29;20266;-83
2022/05/30 10:04:42;;;;;;;12.40;5.93;;;;;;;24.40;44.06;94787.13;4929190;29;20560;-83
2022/05/30 10:07:07;;;;;;;11.40;5.80;;;;;;;25.63;42.97;94899.97;4914016;29;20027;-82
2022/05/30 10:09:34;;;;;;;9.93;6.38;;;;;;;25.44;41.60;94846.63;4908381;29;20047;-83
2022/05/30 10:12:01;;;;;;;11.57;6.10;;;;;;;25.96;40.70;94856.34;4909466;29;20303;-83
2022/05/30 10:14:34;;;;;;;9.75;6.28;;;;;;;25.78;40.24;94773.97;4921551;29;20114;-83
2022/05/30 10:17:25;;;;;;;14.38;6.18;;;;;;;26.42;40.39;94891.16;4912946;29;20168;-83
2022/05/30 10:19:54;;;;;;;16.05;6.32;;;;;;;25.31;40.09;94710.44;4921046;29;20122;-82
2022/05/30 10:28:44;;;;;;;18.60;5.87;;;;;;;26.53;39.37;94840.34;4927889;29;20103;-83
2022/05/30 10:31:22;;;;;;;17.17;5.45;;;;;;;26.97;38.94;94904.63;4915550;29;20337;-84
2022/05/30 10:34:06;;;;;;;17.05;5.97;;;;;;;26.80;39.00;94897.94;4908859;29;20142;-83
2022/05/30 10:37:00;;;;;;;10.43;5.40;;;;;;;27.20;38.82;94894.97;4912382;29;20388;-82
2022/05/30 10:39:51;;;;;;;16.73;5.93;;;;;;;27.26;38.44;94898.09;4907915;29;20043;-82
2022/05/30 10:42:48;;;;;;;20.05;5.50;;;;;;;27.00;38.69;94844.00;4914065;29;20063;-82
2022/05/30 10:45:28;;;;;;;12.23;6.70;;;;;;;27.34;38.17;94863.47;4929115;29;20118;-83
2022/05/30 10:47:56;;;;;;;15.30;6.32;;;;;;;27.54;37.56;94856.53;4930098;29;20762;-82
2022/05/30 10:50:42;;;;;;;14.15;5.55;;;;;;;26.99;37.98;94816.00;4929088;29;20623;-83
2022/05/30 10:53:14;;;;;;;13.20;6.07;;;;;;;27.71;37.73;94902.03;4916061;29;20030;-83
2022/05/30 10:55:44;;;;;;;13.32;5.35;;;;;;;27.97;36.41;94898.16;4930954;29;20039;-84
2022/05/30 10:58:34;;;;;;;14.02;5.65;;;;;;;28.09;36.18;94902.41;4932476;29;20030;-83
2022/05/30 11:01:11;;;;;;;15.65;6.63;;;;;;;28.29;36.35;94888.00;4908109;29;21725;-83
2022/05/30 11:04:03;;;;;;;16.42;6.35;;;;;;;27.94;37.72;94866.22;4911406;29;20035;-83
2022/05/30 11:06:33;;;;;;;18.08;7.30;;;;;;;27.48;36.32;94730.81;4930215;29;20051;-82
2022/05/30 11:09:17;;;;;;;16.23;7.03;;;;;;;28.24;37.01;94885.66;4927340;29;20058;-82
2022/05/30 11:11:46;;;;;;;16.90;6.10;;;;;;;28.30;34.54;94881.34;4913091;29;20039;-84
2022/05/30 11:14:51;;;;;;;14.13;6.13;;;;;;;28.15;34.87;94808.16;4927570;29;20039;-82
2022/05/30 11:17:33;;;;;;;19.05;5.40;;;;;;;29.13;34.14;94877.91;4928373;29;20069;-82
2022/05/30 11:20:39;;;;;;;21.23;6.63;;;;;;;28.97;35.19;94850.31;4935135;29;20069;-82
2022/05/30 11:23:07;;;;;;;13.45;6.78;;;;;;;29.03;34.97;94880.69;4913884;29;20864;-82
2022/05/30 11:25:37;;;;;;;16.42;6.10;;;;;;;28.51;35.85;94819.72;4913582;29;20043;-82
2022/05/30 11:28:27;;;;;;;16.20;5.72;;;;;;;28.86;35.04;94881.56;4928313;29;20454;-82
2022/05/30 11:31:20;;;;;;;9.45;5.68;;;;;;;29.00;34.55;94827.66;4921166;29;20110;-82
2022/05/30 11:33:55;;;;;;;13.60;6.47;;;;;;;29.48;34.19;94884.34;4913752;29;20874;-83
2022/05/30 11:36:44;;;;;;;11.35;5.05;;;;;;;28.08;34.41;94862.66;4916948;29;20051;-82
2022/05/30 11:39:37;;;;;;;14.57;5.47;;;;;;;27.86;34.53;94846.38;4918004;29;20043;-83
2022/05/30 11:42:14;;;;;;;13.05;5.00;;;;;;;28.59;32.94;94889.47;4920958;29;20061;-83
2022/05/30 11:44:53;;;;;;;15.65;5.75;;;;;;;28.62;35.02;94878.50;4935771;29;20134;-83
2022/05/30 11:47:37;;;;;;;20.17;5.93;;;;;;;28.52;35.60;94875.84;4919090;29;20122;-83
2022/05/30 11:50:24;;;;;;;16.85;5.30;;;;;;;28.91;35.31;94864.78;4918327;29;20066;-84
2022/05/30 11:53:10;;;;;;;16.33;5.25;;;;;;;29.18;33.41;94876.72;4908763;29;20035;-83